sensor_id;sensor_type;location;lat;lon;timestamp;temperature;humidity
44190;DHT22;29856;52.144;5.430;2022-11-14T00:00:08;7.00;99.90
44190;DHT22;29856;52.144;5.430;2022-11-14T00:02:35;6.90;99.90
44190;DHT22;29856;52.144;5.430;2022-11-14T00:05:00;6.90;99.90
44190;DHT22;29856;52.144;5.430;2022-11-14T00:07:29;6.80;99.90
44190;DHT22;29856;52.144;5.430;2022-11-14T00:09:55;6.80;99.90
44190;DHT22;29856;52.144;5.430;2022-11-14T00:12:20;6.80;99.90
44190;DHT22;29856;52.144;5.430;2022-11-14T00:14:46;6.70;99.90
44190;DHT22;29856;52.144;5.430;2022-11-14T00:17:11;6.70;99.90
44190;DHT22;29856;52.144;5.430;2022-11-14T00:19:37;6.70;99.90
44190;DHT22;29856;52.144;5.430;2022-11-14T00:22:02;6.70;99.90
44190;DHT22;29856;52.144;5.430;2022-11-14T00:24:27;6.70;99.90
44190;DHT22;29856;52.144;5.430;2022-11-14T00:26:53;6.80;99.90
44190;DHT22;29856;52.144;5.430;2022-11-14T00:29:18;6.80;99.90
44190;DHT22;29856;52.144;5.430;2022-11-14T00:31:44;6.70;99.90
44190;DHT22;29856;52.144;5.430;2022-11-14T00:34:09;6.70;99.90
44190;DHT22;29856;52.144;5.430;2022-11-14T00:36:35;6.70;99.90
44190;DHT22;29856;52.144;5.430;2022-11-14T00:39:01;6.70;99.90
44190;DHT22;29856;52.144;5.430;2022-11-14T00:41:27;6.70;99.90
44190;DHT22;29856;52.144;5.430;2022-11-14T00:43:52;6.80;99.90
44190;DHT22;29856;52.144;5.430;2022-11-14T00:46:18;6.90;99.90
44190;DHT22;29856;52.144;5.430;2022-11-14T00:48:43;6.80;99.90
44190;DHT22;29856;52.144;5.430;2022-11-14T00:51:09;6.90;99.90
44190;DHT22;29856;52.144;5.430;2022-11-14T00:53:36;6.90;99.90
44190;DHT22;29856;52.144;5.430;2022-11-14T00:56:02;6.80;99.90
44190;DHT22;29856;52.144;5.430;2022-11-14T00:58:28;6.90;99.90
44190;DHT22;29856;52.144;5.430;2022-11-14T01:00:53;6.80;99.90
44190;DHT22;29856;52.144;5.430;2022-11-14T01:03:19;6.70;99.90
44190;DHT22;29856;52.144;5.430;2022-11-14T01:05:47;6.60;99.90
44190;DHT22;29856;52.144;5.430;2022-11-14T01:08:14;6.60;99.90
44190;DHT22;29856;52.144;5.430;2022-11-14T01:10:41;6.70;99.90
44190;DHT22;29856;52.144;5.430;2022-11-14T01:13:07;6.70;99.90
44190;DHT22;29856;52.144;5.430;2022-11-14T01:15:33;6.60;99.90
44190;DHT22;29856;52.144;5.430;2022-11-14T01:17:58;6.50;99.90
44190;DHT22;29856;52.144;5.430;2022-11-14T01:20:23;6.50;99.90
44190;DHT22;29856;52.144;5.430;2022-11-14T01:22:49;6.50;99.90
44190;DHT22;29856;52.144;5.430;2022-11-14T01:25:15;6.50;99.90
44190;DHT22;29856;52.144;5.430;2022-11-14T01:27:40;6.50;99.90
44190;DHT22;29856;52.144;5.430;2022-11-14T01:30:06;6.40;99.90
44190;DHT22;29856;52.144;5.430;2022-11-14T01:32:31;6.40;99.90
44190;DHT22;29856;52.144;5.430;2022-11-14T01:34:57;6.40;99.90
44190;DHT22;29856;52.144;5.430;2022-11-14T01:37:22;6.30;99.90
44190;DHT22;29856;52.144;5.430;2022-11-14T01:39:48;6.30;99.90
44190;DHT22;29856;52.144;5.430;2022-11-14T01:42:13;6.20;99.90
44190;DHT22;29856;52.144;5.430;2022-11-14T01:44:46;6.30;99.90
44190;DHT22;29856;52.144;5.430;2022-11-14T01:47:17;6.30;99.90
44190;DHT22;29856;52.144;5.430;2022-11-14T01:49:46;6.20;99.90
44190;DHT22;29856;52.144;5.430;2022-11-14T01:52:20;6.20;99.90
44190;DHT22;29856;52.144;5.430;2022-11-14T01:54:52;6.30;99.90
44190;DHT22;29856;52.144;5.430;2022-11-14T01:57:21;6.20;99.90
44190;DHT22;29856;52.144;5.430;2022-11-14T01:59:50;6.10;99.90
44190;DHT22;29856;52.144;5.430;2022-11-14T02:02:20;6.10;99.90
44190;DHT22;29856;52.144;5.430;2022-11-14T02:04:49;6.00;99.90
44190;DHT22;29856;52.144;5.430;2022-11-14T02:07:16;6.00;99.90
44190;DHT22;29856;52.144;5.430;2022-11-14T02:09:45;5.90;99.90
44190;DHT22;29856;52.144;5.430;2022-11-14T02:12:13;5.90;99.90
44190;DHT22;29856;52.144;5.430;2022-11-14T02:14:40;5.90;99.90
44190;DHT22;29856;52.144;5.430;2022-11-14T02:17:06;5.90;99.90
44190;DHT22;29856;52.144;5.430;2022-11-14T02:19:43;5.90;99.90
44190;DHT22;29856;52.144;5.430;2022-11-14T02:22:09;5.90;99.90
44190;DHT22;29856;52.144;5.430;2022-11-14T02:24:34;5.90;99.90
44190;DHT22;29856;52.144;5.430;2022-11-14T02:27:01;5.80;99.90
44190;DHT22;29856;52.144;5.430;2022-11-14T02:29:31;5.90;99.90
44190;DHT22;29856;52.144;5.430;2022-11-14T02:31:56;5.90;99.90
44190;DHT22;29856;52.144;5.430;2022-11-14T02:34:22;5.80;99.90
44190;DHT22;29856;52.144;5.430;2022-11-14T02:36:47;5.80;99.90
44190;DHT22;29856;52.144;5.430;2022-11-14T02:39:13;5.80;99.90
44190;DHT22;29856;52.144;5.430;2022-11-14T02:41:38;5.80;99.90
44190;DHT22;29856;52.144;5.430;2022-11-14T02:44:04;5.70;99.90
44190;DHT22;29856;52.144;5.430;2022-11-14T02:46:29;5.70;99.90
44190;DHT22;29856;52.144;5.430;2022-11-14T02:48:55;5.70;99.90
44190;DHT22;29856;52.144;5.430;2022-11-14T02:51:20;5.80;99.90
44190;DHT22;29856;52.144;5.430;2022-11-14T02:53:45;6.20;99.90
44190;DHT22;29856;52.144;5.430;2022-11-14T02:56:11;6.20;99.90
44190;DHT22;29856;52.144;5.430;2022-11-14T02:58:36;6.10;99.90
44190;DHT22;29856;52.144;5.430;2022-11-14T03:01:02;6.00;99.90
44190;DHT22;29856;52.144;5.430;2022-11-14T03:03:27;5.90;99.90
44190;DHT22;29856;52.144;5.430;2022-11-14T03:06:01;5.80;99.90
44190;DHT22;29856;52.144;5.430;2022-11-14T03:08:26;5.80;99.90
44190;DHT22;29856;52.144;5.430;2022-11-14T03:10:52;5.90;99.90
44190;DHT22;29856;52.144;5.430;2022-11-14T03:13:17;6.20;99.90
44190;DHT22;29856;52.144;5.430;2022-11-14T03:15:43;6.10;99.90
44190;DHT22;29856;52.144;5.430;2022-11-14T03:18:08;6.00;99.90
44190;DHT22;29856;52.144;5.430;2022-11-14T03:20:34;5.90;99.90
44190;DHT22;29856;52.144;5.430;2022-11-14T03:23:00;5.80;99.90
44190;DHT22;29856;52.144;5.430;2022-11-14T03:25:25;5.70;99.90
44190;DHT22;29856;52.144;5.430;2022-11-14T03:27:51;5.60;99.90
44190;DHT22;29856;52.144;5.430;2022-11-14T03:30:16;5.60;99.90
44190;DHT22;29856;52.144;5.430;2022-11-14T03:32:42;5.50;99.90
44190;DHT22;29856;52.144;5.430;2022-11-14T03:35:08;5.50;99.90
44190;DHT22;29856;52.144;5.430;2022-11-14T03:37:34;5.50;99.90
44190;DHT22;29856;52.144;5.430;2022-11-14T03:39:59;5.40;99.90
44190;DHT22;29856;52.144;5.430;2022-11-14T03:42:24;5.40;99.90
44190;DHT22;29856;52.144;5.430;2022-11-14T03:44:50;5.40;99.90
44190;DHT22;29856;52.144;5.430;2022-11-14T03:47:15;5.60;99.90
44190;DHT22;29856;52.144;5.430;2022-11-14T03:49:41;5.60;99.90
44190;DHT22;29856;52.144;5.430;2022-11-14T03:52:06;5.70;99.90
44190;DHT22;29856;52.144;5.430;2022-11-14T03:54:32;5.80;99.90
44190;DHT22;29856;52.144;5.430;2022-11-14T03:56:57;5.70;99.90
44190;DHT22;29856;52.144;5.430;2022-11-14T03:59:22;5.60;99.90
44190;DHT22;29856;52.144;5.430;2022-11-14T04:01:48;5.50;99.90
44190;DHT22;29856;52.144;5.430;2022-11-14T04:04:13;5.50;99.90
44190;DHT22;29856;52.144;5.430;2022-11-14T04:06:39;5.40;99.90
44190;DHT22;29856;52.144;5.430;2022-11-14T04:09:05;5.60;99.90
44190;DHT22;29856;52.144;5.430;2022-11-14T04:11:30;5.70;99.90
44190;DHT22;29856;52.144;5.430;2022-11-14T04:13:56;5.90;99.90
44190;DHT22;29856;52.144;5.430;2022-11-14T04:16:21;6.00;99.90
44190;DHT22;29856;52.144;5.430;2022-11-14T04:18:47;6.10;99.90
44190;DHT22;29856;52.144;5.430;2022-11-14T04:21:12;6.00;99.90
44190;DHT22;29856;52.144;5.430;2022-11-14T04:23:38;6.10;99.90
44190;DHT22;29856;52.144;5.430;2022-11-14T04:26:03;6.20;99.90
44190;DHT22;29856;52.144;5.430;2022-11-14T04:28:29;6.00;99.90
44190;DHT22;29856;52.144;5.430;2022-11-14T04:30:54;6.00;99.90
44190;DHT22;29856;52.144;5.430;2022-11-14T04:33:20;6.10;99.90
44190;DHT22;29856;52.144;5.430;2022-11-14T04:35:45;6.00;99.90
44190;DHT22;29856;52.144;5.430;2022-11-14T04:38:11;6.00;99.90
44190;DHT22;29856;52.144;5.430;2022-11-14T04:40:36;5.90;99.90
44190;DHT22;29856;52.144;5.430;2022-11-14T04:43:01;6.10;99.90
44190;DHT22;29856;52.144;5.430;2022-11-14T04:45:27;6.00;99.90
44190;DHT22;29856;52.144;5.430;2022-11-14T04:47:52;5.90;99.90
44190;DHT22;29856;52.144;5.430;2022-11-14T04:50:18;5.80;99.90
44190;DHT22;29856;52.144;5.430;2022-11-14T04:52:43;5.70;99.90
44190;DHT22;29856;52.144;5.430;2022-11-14T04:55:09;5.60;99.90
44190;DHT22;29856;52.144;5.430;2022-11-14T04:57:34;5.50;99.90
44190;DHT22;29856;52.144;5.430;2022-11-14T05:00:00;5.50;99.90
44190;DHT22;29856;52.144;5.430;2022-11-14T05:02:25;5.40;99.90
44190;DHT22;29856;52.144;5.430;2022-11-14T05:04:51;5.20;99.90
44190;DHT22;29856;52.144;5.430;2022-11-14T05:07:16;5.20;99.90
44190;DHT22;29856;52.144;5.430;2022-11-14T05:09:42;5.10;99.90
44190;DHT22;29856;52.144;5.430;2022-11-14T05:12:07;5.10;99.90
44190;DHT22;29856;52.144;5.430;2022-11-14T05:14:33;5.00;99.90
44190;DHT22;29856;52.144;5.430;2022-11-14T05:16:58;5.00;99.90
44190;DHT22;29856;52.144;5.430;2022-11-14T05:19:24;5.00;99.90
44190;DHT22;29856;52.144;5.430;2022-11-14T05:21:49;5.00;99.90
44190;DHT22;29856;52.144;5.430;2022-11-14T05:24:14;5.00;99.90
44190;DHT22;29856;52.144;5.430;2022-11-14T05:26:40;5.00;99.90
44190;DHT22;29856;52.144;5.430;2022-11-14T05:29:05;5.00;99.90
44190;DHT22;29856;52.144;5.430;2022-11-14T05:31:31;4.90;99.90
44190;DHT22;29856;52.144;5.430;2022-11-14T05:33:57;4.90;99.90
44190;DHT22;29856;52.144;5.430;2022-11-14T05:36:22;4.90;99.90
44190;DHT22;29856;52.144;5.430;2022-11-14T05:38:47;4.90;99.90
44190;DHT22;29856;52.144;5.430;2022-11-14T05:41:15;4.80;99.90
44190;DHT22;29856;52.144;5.430;2022-11-14T05:43:41;5.00;99.90
44190;DHT22;29856;52.144;5.430;2022-11-14T05:46:11;5.00;99.90
44190;DHT22;29856;52.144;5.430;2022-11-14T05:48:37;5.00;99.90
44190;DHT22;29856;52.144;5.430;2022-11-14T05:51:03;5.00;99.90
44190;DHT22;29856;52.144;5.430;2022-11-14T05:53:30;5.10;99.90
44190;DHT22;29856;52.144;5.430;2022-11-14T05:56:00;5.00;99.90
44190;DHT22;29856;52.144;5.430;2022-11-14T05:58:26;5.10;99.90
44190;DHT22;29856;52.144;5.430;2022-11-14T06:00:52;5.20;99.90
44190;DHT22;29856;52.144;5.430;2022-11-14T06:03:17;5.30;99.90
44190;DHT22;29856;52.144;5.430;2022-11-14T06:05:43;5.20;99.90
44190;DHT22;29856;52.144;5.430;2022-11-14T06:08:08;5.10;99.90
44190;DHT22;29856;52.144;5.430;2022-11-14T06:10:34;5.00;99.90
44190;DHT22;29856;52.144;5.430;2022-11-14T06:13:00;5.10;99.90
44190;DHT22;29856;52.144;5.430;2022-11-14T06:15:26;5.00;99.90
44190;DHT22;29856;52.144;5.430;2022-11-14T06:17:52;5.10;99.90
44190;DHT22;29856;52.144;5.430;2022-11-14T06:20:18;5.10;99.90
44190;DHT22;29856;52.144;5.430;2022-11-14T06:22:43;5.00;99.90
44190;DHT22;29856;52.144;5.430;2022-11-14T06:25:09;5.00;99.90
44190;DHT22;29856;52.144;5.430;2022-11-14T06:27:35;4.90;99.90
44190;DHT22;29856;52.144;5.430;2022-11-14T06:30:00;4.90;99.90
44190;DHT22;29856;52.144;5.430;2022-11-14T06:32:25;4.80;99.90
44190;DHT22;29856;52.144;5.430;2022-11-14T06:34:51;4.70;99.90
44190;DHT22;29856;52.144;5.430;2022-11-14T06:37:16;4.70;99.90
44190;DHT22;29856;52.144;5.430;2022-11-14T06:39:42;4.60;99.90
44190;DHT22;29856;52.144;5.430;2022-11-14T06:42:07;4.60;99.90
44190;DHT22;29856;52.144;5.430;2022-11-14T06:44:33;4.60;99.90
44190;DHT22;29856;52.144;5.430;2022-11-14T06:46:58;4.60;99.90
44190;DHT22;29856;52.144;5.430;2022-11-14T06:49:24;4.60;99.90
44190;DHT22;29856;52.144;5.430;2022-11-14T06:51:50;4.70;99.90
44190;DHT22;29856;52.144;5.430;2022-11-14T06:54:16;4.70;99.90
44190;DHT22;29856;52.144;5.430;2022-11-14T06:56:41;4.60;99.90
44190;DHT22;29856;52.144;5.430;2022-11-14T06:59:07;4.70;99.90
44190;DHT22;29856;52.144;5.430;2022-11-14T07:01:33;4.60;99.90
44190;DHT22;29856;52.144;5.430;2022-11-14T07:03:58;4.60;99.90
44190;DHT22;29856;52.144;5.430;2022-11-14T07:06:25;4.70;99.90
44190;DHT22;29856;52.144;5.430;2022-11-14T07:08:52;4.70;99.90
44190;DHT22;29856;52.144;5.430;2022-11-14T07:11:23;4.70;99.90
44190;DHT22;29856;52.144;5.430;2022-11-14T07:13:50;4.60;99.90
44190;DHT22;29856;52.144;5.430;2022-11-14T07:16:16;4.60;99.90
44190;DHT22;29856;52.144;5.430;2022-11-14T07:18:42;4.60;99.90
44190;DHT22;29856;52.144;5.430;2022-11-14T07:21:08;4.60;99.90
44190;DHT22;29856;52.144;5.430;2022-11-14T07:23:34;4.60;99.90
44190;DHT22;29856;52.144;5.430;2022-11-14T07:26:04;4.60;99.90
44190;DHT22;29856;52.144;5.430;2022-11-14T07:28:30;4.60;99.90
44190;DHT22;29856;52.144;5.430;2022-11-14T07:30:55;4.80;99.90
44190;DHT22;29856;52.144;5.430;2022-11-14T07:33:21;4.80;99.90
44190;DHT22;29856;52.144;5.430;2022-11-14T07:35:46;4.80;99.90
44190;DHT22;29856;52.144;5.430;2022-11-14T07:38:12;4.80;99.90
44190;DHT22;29856;52.144;5.430;2022-11-14T07:40:37;4.90;99.90
44190;DHT22;29856;52.144;5.430;2022-11-14T07:43:03;5.10;99.90
44190;DHT22;29856;52.144;5.430;2022-11-14T07:45:29;5.30;99.90
44190;DHT22;29856;52.144;5.430;2022-11-14T07:47:59;5.30;99.90
44190;DHT22;29856;52.144;5.430;2022-11-14T07:50:25;5.30;99.90
44190;DHT22;29856;52.144;5.430;2022-11-14T07:52:52;5.40;99.90
44190;DHT22;29856;52.144;5.430;2022-11-14T07:55:18;5.40;99.90
44190;DHT22;29856;52.144;5.430;2022-11-14T07:57:44;5.40;99.90
44190;DHT22;29856;52.144;5.430;2022-11-14T08:00:10;5.20;99.90
44190;DHT22;29856;52.144;5.430;2022-11-14T08:02:36;5.20;99.90
44190;DHT22;29856;52.144;5.430;2022-11-14T08:05:01;5.30;99.90
44190;DHT22;29856;52.144;5.430;2022-11-14T08:07:27;5.30;99.90
44190;DHT22;29856;52.144;5.430;2022-11-14T08:09:52;5.60;99.90
44190;DHT22;29856;52.144;5.430;2022-11-14T08:12:18;5.40;99.90
44190;DHT22;29856;52.144;5.430;2022-11-14T08:14:43;5.20;99.90
44190;DHT22;29856;52.144;5.430;2022-11-14T08:17:08;5.10;99.90
44190;DHT22;29856;52.144;5.430;2022-11-14T08:19:34;5.10;99.90
44190;DHT22;29856;52.144;5.430;2022-11-14T08:21:59;5.00;99.90
44190;DHT22;29856;52.144;5.430;2022-11-14T08:24:25;5.00;99.90
44190;DHT22;29856;52.144;5.430;2022-11-14T08:26:50;5.00;99.90
44190;DHT22;29856;52.144;5.430;2022-11-14T08:29:16;5.00;99.90
44190;DHT22;29856;52.144;5.430;2022-11-14T08:31:41;4.90;99.90
44190;DHT22;29856;52.144;5.430;2022-11-14T08:34:07;5.00;99.90
44190;DHT22;29856;52.144;5.430;2022-11-14T08:36:32;5.10;99.90
44190;DHT22;29856;52.144;5.430;2022-11-14T08:38:59;5.20;99.90
44190;DHT22;29856;52.144;5.430;2022-11-14T08:41:24;5.20;99.90
44190;DHT22;29856;52.144;5.430;2022-11-14T08:43:49;5.10;99.90
44190;DHT22;29856;52.144;5.430;2022-11-14T08:46:15;5.30;99.90
44190;DHT22;29856;52.144;5.430;2022-11-14T08:48:40;5.50;99.90
44190;DHT22;29856;52.144;5.430;2022-11-14T08:51:06;5.60;99.90
44190;DHT22;29856;52.144;5.430;2022-11-14T08:53:33;5.80;99.90
44190;DHT22;29856;52.144;5.430;2022-11-14T08:55:58;5.90;99.90
44190;DHT22;29856;52.144;5.430;2022-11-14T08:58:27;6.00;99.90
44190;DHT22;29856;52.144;5.430;2022-11-14T09:00:52;6.00;99.90
44190;DHT22;29856;52.144;5.430;2022-11-14T09:03:18;6.20;99.90
44190;DHT22;29856;52.144;5.430;2022-11-14T09:05:49;6.10;99.90
44190;DHT22;29856;52.144;5.430;2022-11-14T09:08:14;6.20;99.90
44190;DHT22;29856;52.144;5.430;2022-11-14T09:10:40;6.50;99.90
44190;DHT22;29856;52.144;5.430;2022-11-14T09:13:05;6.60;99.90
44190;DHT22;29856;52.144;5.430;2022-11-14T09:15:31;6.70;99.90
44190;DHT22;29856;52.144;5.430;2022-11-14T09:17:56;6.60;99.90
44190;DHT22;29856;52.144;5.430;2022-11-14T09:20:23;7.00;99.90
44190;DHT22;29856;52.144;5.430;2022-11-14T09:22:49;7.00;99.90
44190;DHT22;29856;52.144;5.430;2022-11-14T09:25:15;7.10;99.90
44190;DHT22;29856;52.144;5.430;2022-11-14T09:27:40;7.10;99.90
44190;DHT22;29856;52.144;5.430;2022-11-14T09:30:06;7.20;99.90
44190;DHT22;29856;52.144;5.430;2022-11-14T09:32:32;7.30;99.90
44190;DHT22;29856;52.144;5.430;2022-11-14T09:34:57;7.30;99.90
44190;DHT22;29856;52.144;5.430;2022-11-14T09:37:23;7.40;99.90
44190;DHT22;29856;52.144;5.430;2022-11-14T09:39:48;7.50;99.90
44190;DHT22;29856;52.144;5.430;2022-11-14T09:44:49;7.70;99.90
44190;DHT22;29856;52.144;5.430;2022-11-14T09:47:21;7.90;99.90
44190;DHT22;29856;52.144;5.430;2022-11-14T09:49:49;8.00;99.90
44190;DHT22;29856;52.144;5.430;2022-11-14T09:52:24;8.10;99.90
44190;DHT22;29856;52.144;5.430;2022-11-14T09:54:57;8.30;99.90
44190;DHT22;29856;52.144;5.430;2022-11-14T09:57:24;8.40;99.90
44190;DHT22;29856;52.144;5.430;2022-11-14T09:59:50;8.40;99.90
44190;DHT22;29856;52.144;5.430;2022-11-14T10:11:06;8.90;99.90
44190;DHT22;29856;52.144;5.430;2022-11-14T10:13:49;8.90;99.90
44190;DHT22;29856;52.144;5.430;2022-11-14T10:21:58;8.90;99.90
44190;DHT22;29856;52.144;5.430;2022-11-14T10:27:03;9.00;99.90
44190;DHT22;29856;52.144;5.430;2022-11-14T10:29:49;9.10;99.90
44190;DHT22;29856;52.144;5.430;2022-11-14T10:32:54;9.20;99.90
44190;DHT22;29856;52.144;5.430;2022-11-14T10:35:46;9.20;99.90
44190;DHT22;29856;52.144;5.430;2022-11-14T10:41:00;9.20;99.90
44190;DHT22;29856;52.144;5.430;2022-11-14T10:43:41;9.30;99.90
44190;DHT22;29856;52.144;5.430;2022-11-14T10:46:27;9.40;99.90
44190;DHT22;29856;52.144;5.430;2022-11-14T10:48:54;9.50;99.90
44190;DHT22;29856;52.144;5.430;2022-11-14T10:54:43;9.60;99.90
44190;DHT22;29856;52.144;5.430;2022-11-14T10:57:15;9.60;99.90
44190;DHT22;29856;52.144;5.430;2022-11-14T10:59:41;9.50;99.90
44190;DHT22;29856;52.144;5.430;2022-11-14T11:02:07;9.50;99.90
44190;DHT22;29856;52.144;5.430;2022-11-14T11:04:35;9.50;99.90
44190;DHT22;29856;52.144;5.430;2022-11-14T11:09:33;9.70;99.90
44190;DHT22;29856;52.144;5.430;2022-11-14T11:12:00;9.70;99.90
44190;DHT22;29856;52.144;5.430;2022-11-14T11:14:27;9.70;99.90
44190;DHT22;29856;52.144;5.430;2022-11-14T11:19:38;9.90;99.90
44190;DHT22;29856;52.144;5.430;2022-11-14T11:22:04;10.00;99.90
44190;DHT22;29856;52.144;5.430;2022-11-14T11:24:36;10.10;99.90
44190;DHT22;29856;52.144;5.430;2022-11-14T11:29:44;10.20;99.90
44190;DHT22;29856;52.144;5.430;2022-11-14T11:32:09;10.20;99.90
44190;DHT22;29856;52.144;5.430;2022-11-14T11:34:35;10.30;99.90
44190;DHT22;29856;52.144;5.430;2022-11-14T11:39:29;10.30;99.90
44190;DHT22;29856;52.144;5.430;2022-11-14T11:41:58;10.40;99.90
44190;DHT22;29856;52.144;5.430;2022-11-14T11:44:39;10.40;99.90
44190;DHT22;29856;52.144;5.430;2022-11-14T11:47:13;10.40;99.90
44190;DHT22;29856;52.144;5.430;2022-11-14T11:49:46;10.50;99.90
44190;DHT22;29856;52.144;5.430;2022-11-14T11:52:33;10.50;99.90
44190;DHT22;29856;52.144;5.430;2022-11-14T11:57:47;10.30;99.90
44190;DHT22;29856;52.144;5.430;2022-11-14T12:00:20;10.30;99.90
44190;DHT22;29856;52.144;5.430;2022-11-14T12:02:48;10.40;99.90
44190;DHT22;29856;52.144;5.430;2022-11-14T12:08:43;10.40;99.90
44190;DHT22;29856;52.144;5.430;2022-11-14T12:11:15;10.40;99.90
44190;DHT22;29856;52.144;5.430;2022-11-14T12:28:11;10.50;99.90
44190;DHT22;29856;52.144;5.430;2022-11-14T12:30:40;10.60;99.90
44190;DHT22;29856;52.144;5.430;2022-11-14T12:35:49;10.50;99.90
44190;DHT22;29856;52.144;5.430;2022-11-14T12:38:16;10.50;99.90
44190;DHT22;29856;52.144;5.430;2022-11-14T12:40:53;10.40;99.90
44190;DHT22;29856;52.144;5.430;2022-11-14T12:43:35;10.40;99.90
44190;DHT22;29856;52.144;5.430;2022-11-14T12:46:11;10.40;99.90
44190;DHT22;29856;52.144;5.430;2022-11-14T12:48:42;10.40;99.90
44190;DHT22;29856;52.144;5.430;2022-11-14T12:53:57;10.40;99.90
44190;DHT22;29856;52.144;5.430;2022-11-14T12:56:41;10.40;99.90
44190;DHT22;29856;52.144;5.430;2022-11-14T13:02:45;10.10;99.90
44190;DHT22;29856;52.144;5.430;2022-11-14T13:08:14;10.00;99.90
44190;DHT22;29856;52.144;5.430;2022-11-14T13:10:42;9.90;99.90
44190;DHT22;29856;52.144;5.430;2022-11-14T13:13:09;9.80;99.90
44190;DHT22;29856;52.144;5.430;2022-11-14T13:20:42;9.50;99.90
44190;DHT22;29856;52.144;5.430;2022-11-14T13:28:51;9.50;99.90
44190;DHT22;29856;52.144;5.430;2022-11-14T13:31:20;9.50;99.90
44190;DHT22;29856;52.144;5.430;2022-11-14T13:33:48;9.60;99.90
44190;DHT22;29856;52.144;5.430;2022-11-14T13:36:38;9.70;99.90
44190;DHT22;29856;52.144;5.430;2022-11-14T13:50:05;9.60;99.90
44190;DHT22;29856;52.144;5.430;2022-11-14T13:52:33;9.60;99.90
44190;DHT22;29856;52.144;5.430;2022-11-14T13:55:00;9.60;99.90
44190;DHT22;29856;52.144;5.430;2022-11-14T13:57:52;9.60;99.90
44190;DHT22;29856;52.144;5.430;2022-11-14T14:00:22;9.60;99.90
44190;DHT22;29856;52.144;5.430;2022-11-14T14:03:04;9.50;99.90
44190;DHT22;29856;52.144;5.430;2022-11-14T14:08:18;9.60;99.90
44190;DHT22;29856;52.144;5.430;2022-11-14T14:11:14;9.50;99.90
44190;DHT22;29856;52.144;5.430;2022-11-14T14:16:54;9.50;99.90
44190;DHT22;29856;52.144;5.430;2022-11-14T14:19:42;9.50;99.90
44190;DHT22;29856;52.144;5.430;2022-11-14T14:22:46;9.40;99.90
44190;DHT22;29856;52.144;5.430;2022-11-14T14:30:27;9.40;99.90
44190;DHT22;29856;52.144;5.430;2022-11-14T14:33:03;9.30;99.90
44190;DHT22;29856;52.144;5.430;2022-11-14T14:35:35;9.40;99.90
44190;DHT22;29856;52.144;5.430;2022-11-14T14:38:01;9.30;99.90
44190;DHT22;29856;52.144;5.430;2022-11-14T14:40:30;9.30;99.90
44190;DHT22;29856;52.144;5.430;2022-11-14T14:42:56;9.30;99.90
44190;DHT22;29856;52.144;5.430;2022-11-14T14:45:25;9.30;99.90
44190;DHT22;29856;52.144;5.430;2022-11-14T14:48:02;9.20;99.90
44190;DHT22;29856;52.144;5.430;2022-11-14T14:50:38;9.30;99.90
44190;DHT22;29856;52.144;5.430;2022-11-14T14:53:04;9.20;99.90
44190;DHT22;29856;52.144;5.430;2022-11-14T14:55:33;9.20;99.90
44190;DHT22;29856;52.144;5.430;2022-11-14T15:00:54;9.20;99.90
44190;DHT22;29856;52.144;5.430;2022-11-14T15:03:22;9.30;99.90
44190;DHT22;29856;52.144;5.430;2022-11-14T15:05:48;9.20;99.90
44190;DHT22;29856;52.144;5.430;2022-11-14T15:08:21;9.20;99.90
44190;DHT22;29856;52.144;5.430;2022-11-14T15:10:46;9.10;99.90
44190;DHT22;29856;52.144;5.430;2022-11-14T15:13:14;9.10;99.90
44190;DHT22;29856;52.144;5.430;2022-11-14T15:15:41;9.10;99.90
44190;DHT22;29856;52.144;5.430;2022-11-14T15:18:21;9.20;99.90
44190;DHT22;29856;52.144;5.430;2022-11-14T15:24:11;9.30;99.90
44190;DHT22;29856;52.144;5.430;2022-11-14T15:26:37;9.30;99.90
44190;DHT22;29856;52.144;5.430;2022-11-14T15:29:20;9.30;99.90
44190;DHT22;29856;52.144;5.430;2022-11-14T15:39:36;9.40;99.90
44190;DHT22;29856;52.144;5.430;2022-11-14T15:44:49;9.40;99.90
44190;DHT22;29856;52.144;5.430;2022-11-14T15:47:29;9.30;99.90
44190;DHT22;29856;52.144;5.430;2022-11-14T15:50:05;9.30;99.90
44190;DHT22;29856;52.144;5.430;2022-11-14T15:53:05;9.40;99.90
44190;DHT22;29856;52.144;5.430;2022-11-14T15:55:31;9.40;99.90
44190;DHT22;29856;52.144;5.430;2022-11-14T15:57:56;9.40;99.90
44190;DHT22;29856;52.144;5.430;2022-11-14T16:00:22;9.40;99.90
44190;DHT22;29856;52.144;5.430;2022-11-14T16:02:55;9.40;99.90
44190;DHT22;29856;52.144;5.430;2022-11-14T16:05:27;9.40;99.90
44190;DHT22;29856;52.144;5.430;2022-11-14T16:07:54;9.40;99.90
44190;DHT22;29856;52.144;5.430;2022-11-14T16:10:24;9.30;99.90
44190;DHT22;29856;52.144;5.430;2022-11-14T16:12:50;9.40;99.90
44190;DHT22;29856;52.144;5.430;2022-11-14T16:15:17;9.30;99.90
44190;DHT22;29856;52.144;5.430;2022-11-14T16:17:45;9.50;99.90
44190;DHT22;29856;52.144;5.430;2022-11-14T16:20:19;9.50;99.90
44190;DHT22;29856;52.144;5.430;2022-11-14T16:22:46;9.40;99.90
44190;DHT22;29856;52.144;5.430;2022-11-14T16:25:21;9.40;99.90
44190;DHT22;29856;52.144;5.430;2022-11-14T16:27:46;9.30;99.90
44190;DHT22;29856;52.144;5.430;2022-11-14T16:30:14;9.20;99.90
44190;DHT22;29856;52.144;5.430;2022-11-14T16:32:40;9.30;99.90
44190;DHT22;29856;52.144;5.430;2022-11-14T16:35:12;9.40;99.90
44190;DHT22;29856;52.144;5.430;2022-11-14T16:37:38;9.40;99.90
44190;DHT22;29856;52.144;5.430;2022-11-14T16:40:04;9.40;99.90
44190;DHT22;29856;52.144;5.430;2022-11-14T16:42:29;9.30;99.90
44190;DHT22;29856;52.144;5.430;2022-11-14T16:45:01;9.30;99.90
44190;DHT22;29856;52.144;5.430;2022-11-14T16:47:27;9.30;99.90
44190;DHT22;29856;52.144;5.430;2022-11-14T16:49:52;9.20;99.90
44190;DHT22;29856;52.144;5.430;2022-11-14T16:52:18;9.30;99.90
44190;DHT22;29856;52.144;5.430;2022-11-14T16:54:43;9.20;99.90
44190;DHT22;29856;52.144;5.430;2022-11-14T16:57:09;9.10;99.90
44190;DHT22;29856;52.144;5.430;2022-11-14T16:59:34;9.10;99.90
44190;DHT22;29856;52.144;5.430;2022-11-14T17:02:00;8.90;99.90
44190;DHT22;29856;52.144;5.430;2022-11-14T17:04:25;9.00;99.90
44190;DHT22;29856;52.144;5.430;2022-11-14T17:06:51;8.90;99.90
44190;DHT22;29856;52.144;5.430;2022-11-14T17:09:16;8.90;99.90
44190;DHT22;29856;52.144;5.430;2022-11-14T17:11:41;9.00;99.90
44190;DHT22;29856;52.144;5.430;2022-11-14T17:14:07;9.00;99.90
44190;DHT22;29856;52.144;5.430;2022-11-14T17:16:32;8.90;99.90
44190;DHT22;29856;52.144;5.430;2022-11-14T17:19:00;8.80;99.90
44190;DHT22;29856;52.144;5.430;2022-11-14T17:21:26;8.80;99.90
44190;DHT22;29856;52.144;5.430;2022-11-14T17:23:59;8.80;99.90
44190;DHT22;29856;52.144;5.430;2022-11-14T17:26:25;8.90;99.90
44190;DHT22;29856;52.144;5.430;2022-11-14T17:28:50;9.00;99.90
44190;DHT22;29856;52.144;5.430;2022-11-14T17:31:16;9.00;99.90
44190;DHT22;29856;52.144;5.430;2022-11-14T17:33:42;9.00;99.90
44190;DHT22;29856;52.144;5.430;2022-11-14T17:36:09;8.90;99.90
44190;DHT22;29856;52.144;5.430;2022-11-14T17:38:36;8.70;99.90
44190;DHT22;29856;52.144;5.430;2022-11-14T17:41:02;8.60;99.90
44190;DHT22;29856;52.144;5.430;2022-11-14T17:43:27;8.80;99.90
44190;DHT22;29856;52.144;5.430;2022-11-14T17:45:56;8.60;99.90